Time;durP1;ratioP1;P1;durP2;ratioP2;P2;SDS_P1;SDS_P2;PMS_P1;PMS_P2;Temp;Humidity;BMP_temperature;BMP_pressure;BME280_temperature;BME280_humidity;BME280_pressure;Samples;Min_cycle;Max_cycle;Signal;HPM_P1;HPM_P2
2021/03/05 00:01:54;;;;;;;3.33;2.47;;;23.40;27.20;;;;;;5052876;28;20205;-44
2021/03/05 00:04:20;;;;;;;4.47;2.67;;;23.40;27.20;;;;;;5053987;28;20232;-44
2021/03/05 00:06:46;;;;;;;4.03;2.43;;;23.40;27.30;;;;;;5051716;28;20206;-44
2021/03/05 00:09:12;;;;;;;3.27;2.20;;;23.40;27.20;;;;;;5053103;28;20224;-44
2021/03/05 00:11:38;;;;;;;4.37;2.43;;;23.40;27.30;;;;;;5054286;28;20215;-46
2021/03/05 00:14:03;;;;;;;3.43;2.17;;;23.40;27.30;;;;;;5054019;28;20201;-44
2021/03/05 00:16:29;;;;;;;3.17;2.20;;;23.40;27.20;;;;;;5054152;28;20201;-43
2021/03/05 00:18:55;;;;;;;3.20;2.20;;;23.40;27.20;;;;;;5052699;28;20222;-44
2021/03/05 00:21:21;;;;;;;4.03;2.15;;;23.40;27.20;;;;;;5054718;28;20212;-44
2021/03/05 00:23:47;;;;;;;2.73;2.20;;;23.40;27.30;;;;;;5052999;28;20427;-44
2021/03/05 00:26:13;;;;;;;2.65;1.95;;;23.40;27.30;;;;;;5057429;28;20662;-46
2021/03/05 00:28:39;;;;;;;4.20;2.30;;;23.40;27.30;;;;;;5049006;28;20287;-44
2021/03/05 00:31:05;;;;;;;3.00;2.47;;;23.40;27.30;;;;;;5049505;28;20201;-44
2021/03/05 00:33:31;;;;;;;4.18;2.10;;;23.40;27.30;;;;;;5052309;28;20259;-46
2021/03/05 00:35:57;;;;;;;3.07;2.33;;;23.40;27.40;;;;;;5054591;28;20236;-44
2021/03/05 00:38:23;;;;;;;2.93;2.00;;;23.40;27.30;;;;;;5052949;28;20233;-45
2021/03/05 00:40:48;;;;;;;2.47;2.27;;;23.40;27.40;;;;;;5054347;28;20657;-44
2021/03/05 00:43:14;;;;;;;2.58;2.25;;;23.40;27.40;;;;;;5051107;28;20220;-44
2021/03/05 00:45:40;;;;;;;3.00;2.17;;;23.40;27.50;;;;;;5054105;28;20225;-47
2021/03/05 00:48:06;;;;;;;2.70;2.13;;;23.40;27.40;;;;;;5052375;28;20225;-44
2021/03/05 00:50:32;;;;;;;3.85;2.63;;;23.40;27.40;;;;;;5049430;28;20252;-44
2021/03/05 00:52:58;;;;;;;3.03;2.00;;;23.40;27.40;;;;;;5054067;28;20209;-43
2021/03/05 00:55:24;;;;;;;3.10;2.00;;;23.40;27.50;;;;;;5052932;28;20271;-45
2021/03/05 00:57:50;;;;;;;2.90;2.37;;;23.40;27.50;;;;;;5054223;28;20228;-44
2021/03/05 01:00:16;;;;;;;2.60;2.20;;;23.40;27.50;;;;;;5051338;28;20689;-45
2021/03/05 01:02:42;;;;;;;4.87;2.10;;;23.40;27.50;;;;;;5052744;28;20213;-45
2021/03/05 01:05:08;;;;;;;2.63;1.90;;;23.40;27.60;;;;;;5052707;28;20237;-43
2021/03/05 01:07:33;;;;;;;2.27;1.83;;;23.40;27.50;;;;;;5052378;28;20236;-47
2021/03/05 01:09:59;;;;;;;3.57;2.00;;;23.40;27.50;;;;;;5051948;28;20215;-43
2021/03/05 01:12:25;;;;;;;2.83;1.90;;;23.40;27.50;;;;;;5051832;28;20198;-44
2021/03/05 01:14:53;;;;;;;3.63;2.17;;;23.40;27.50;;;;;;5053940;28;20274;-43
2021/03/05 01:17:19;;;;;;;3.63;2.23;;;23.40;27.60;;;;;;5053232;28;20310;-44
2021/03/05 01:19:45;;;;;;;4.00;2.00;;;23.40;27.60;;;;;;5051654;28;20210;-44
2021/03/05 01:22:11;;;;;;;2.90;1.90;;;23.40;27.60;;;;;;5052330;28;20235;-45
2021/03/05 01:24:36;;;;;;;3.73;2.43;;;23.40;27.60;;;;;;5052310;28;20232;-46
2021/03/05 01:27:02;;;;;;;2.80;2.13;;;23.40;27.60;;;;;;5053649;28;20661;-43
2021/03/05 01:29:28;;;;;;;2.00;1.80;;;23.40;27.60;;;;;;5051175;28;20208;-44
2021/03/05 01:31:54;;;;;;;2.00;1.80;;;23.40;27.70;;;;;;5051986;28;20213;-44
2021/03/05 01:34:20;;;;;;;1.90;1.67;;;23.40;27.70;;;;;;5052236;28;20216;-44
2021/03/05 01:36:46;;;;;;;3.43;2.27;;;23.40;27.60;;;;;;5052329;28;20214;-44
2021/03/05 01:39:12;;;;;;;2.05;1.60;;;23.40;27.70;;;;;;5053122;28;20221;-45
2021/03/05 01:41:38;;;;;;;3.47;2.27;;;23.40;27.60;;;;;;5050102;28;20202;-44
2021/03/05 01:44:04;;;;;;;2.33;2.10;;;23.40;27.60;;;;;;5052608;28;20193;-43
2021/03/05 01:46:30;;;;;;;2.90;2.13;;;23.40;27.70;;;;;;5052102;28;20692;-44
2021/03/05 01:48:56;;;;;;;3.17;2.00;;;23.40;27.70;;;;;;5053236;28;20224;-46
2021/03/05 01:51:22;;;;;;;3.90;2.10;;;23.40;27.70;;;;;;5053394;28;20204;-43
2021/03/05 01:53:48;;;;;;;2.30;1.97;;;23.40;27.80;;;;;;5052224;28;20669;-43
2021/03/05 01:56:13;;;;;;;2.27;1.77;;;23.40;27.70;;;;;;5051465;28;20213;-44
2021/03/05 01:58:39;;;;;;;3.15;2.50;;;23.40;27.70;;;;;;5052396;28;20236;-44
2021/03/05 02:01:05;;;;;;;2.27;1.83;;;23.40;27.80;;;;;;5051648;28;20197;-44
2021/03/05 02:03:31;;;;;;;3.17;1.90;;;23.40;27.80;;;;;;5051604;28;20208;-44
2021/03/05 02:05:57;;;;;;;2.75;2.17;;;23.40;27.80;;;;;;5052175;28;20286;-44
2021/03/05 02:08:23;;;;;;;3.93;1.90;;;23.40;27.80;;;;;;5051987;28;20700;-44
2021/03/05 02:10:49;;;;;;;3.83;2.03;;;23.40;28.40;;;;;;5050340;28;20212;-44
2021/03/05 02:13:15;;;;;;;2.63;2.00;;;23.40;27.90;;;;;;5051604;28;20205;-44
2021/03/05 02:15:41;;;;;;;3.97;2.17;;;23.40;27.90;;;;;;5049882;28;20204;-45
2021/03/05 02:18:07;;;;;;;2.00;1.80;;;23.40;27.90;;;;;;5052567;28;20583;-47
2021/03/05 02:20:33;;;;;;;3.87;2.10;;;23.40;27.90;;;;;;5051266;28;20208;-47
2021/03/05 02:22:59;;;;;;;2.17;1.97;;;23.40;28.00;;;;;;5051184;28;20208;-44
2021/03/05 02:25:24;;;;;;;2.73;2.07;;;23.40;27.90;;;;;;5053394;28;20245;-45
2021/03/05 02:27:50;;;;;;;5.67;1.90;;;23.40;27.90;;;;;;5052147;28;20271;-45
2021/03/05 02:30:16;;;;;;;1.80;1.70;;;23.40;28.00;;;;;;5050728;28;20283;-44
2021/03/05 02:32:42;;;;;;;1.73;1.53;;;23.40;27.90;;;;;;5050042;28;20213;-45
2021/03/05 02:35:08;;;;;;;2.70;1.70;;;23.40;28.00;;;;;;5041104;28;20217;-43
2021/03/05 02:37:34;;;;;;;3.78;1.85;;;23.40;28.00;;;;;;5051857;28;20225;-44
2021/03/05 02:40:00;;;;;;;2.60;1.77;;;23.40;28.00;;;;;;5051029;28;20559;-47
2021/03/05 02:42:26;;;;;;;2.70;2.10;;;23.40;28.00;;;;;;5048372;28;20220;-44
2021/03/05 02:44:52;;;;;;;2.03;1.83;;;23.40;28.00;;;;;;5049914;28;20220;-45
2021/03/05 02:47:18;;;;;;;4.07;1.93;;;23.40;28.00;;;;;;5051649;28;20218;-44
2021/03/05 02:49:44;;;;;;;2.40;1.77;;;23.40;28.00;;;;;;5048779;28;20285;-44
2021/03/05 02:52:10;;;;;;;2.08;1.58;;;23.40;28.10;;;;;;5045450;28;20209;-45
2021/03/05 02:54:36;;;;;;;2.07;1.67;;;23.40;28.10;;;;;;5050309;28;20202;-44
2021/03/05 02:57:02;;;;;;;2.73;1.80;;;23.40;28.20;;;;;;5050360;28;20635;-45
2021/03/05 02:59:28;;;;;;;3.20;1.70;;;23.40;28.10;;;;;;5050966;28;20212;-46
2021/03/05 03:01:54;;;;;;;3.23;2.10;;;23.40;28.30;;;;;;5050380;28;20240;-44
2021/03/05 03:04:19;;;;;;;2.33;1.90;;;23.40;28.30;;;;;;5049924;28;20234;-46
2021/03/05 03:06:45;;;;;;;3.00;2.03;;;23.40;28.30;;;;;;5050265;28;20275;-44
2021/03/05 03:09:11;;;;;;;2.57;1.93;;;23.40;28.30;;;;;;5051591;28;20740;-44
2021/03/05 03:11:37;;;;;;;2.90;1.70;;;23.40;28.80;;;;;;5049772;28;20272;-44
2021/03/05 03:14:03;;;;;;;2.40;2.10;;;23.40;28.30;;;;;;5050147;28;20209;-46
2021/03/05 03:16:29;;;;;;;2.67;1.80;;;23.40;28.30;;;;;;5050944;28;20205;-44
2021/03/05 03:18:55;;;;;;;2.53;1.80;;;23.40;28.30;;;;;;5050764;28;20216;-47
2021/03/05 03:21:21;;;;;;;3.87;1.80;;;23.40;28.30;;;;;;5051569;28;20653;-45
2021/03/05 03:23:47;;;;;;;3.10;1.70;;;23.40;28.30;;;;;;5045858;28;20209;-46
2021/03/05 03:26:13;;;;;;;2.10;1.67;;;23.40;28.30;;;;;;5067931;28;20228;-45
2021/03/05 03:28:38;;;;;;;3.33;1.60;;;23.40;28.30;;;;;;5058089;28;20229;-47
2021/03/05 03:31:04;;;;;;;2.03;1.70;;;23.40;28.30;;;;;;5050161;28;20210;-49
2021/03/05 03:33:30;;;;;;;2.83;1.83;;;23.40;28.30;;;;;;5049149;28;20886;-45
2021/03/05 03:35:56;;;;;;;2.20;2.00;;;23.40;28.30;;;;;;5050992;28;20211;-44
2021/03/05 03:38:22;;;;;;;2.17;1.92;;;23.40;28.30;;;;;;5049562;28;20221;-45
2021/03/05 03:40:48;;;;;;;1.88;1.73;;;23.40;28.30;;;;;;5050957;28;20212;-46
2021/03/05 03:43:14;;;;;;;2.17;1.53;;;23.40;28.30;;;;;;5047907;28;20210;-44
2021/03/05 03:45:40;;;;;;;2.00;1.80;;;23.40;28.30;;;;;;5050666;28;20226;-44
2021/03/05 03:48:06;;;;;;;1.88;1.67;;;23.40;28.30;;;;;;5050275;28;20310;-47
2021/03/05 03:50:32;;;;;;;4.95;1.85;;;23.40;28.30;;;;;;5049976;28;20537;-44
2021/03/05 03:52:58;;;;;;;2.73;2.03;;;23.40;28.30;;;;;;5050061;28;20217;-44
2021/03/05 03:55:23;;;;;;;2.20;1.92;;;23.40;28.30;;;;;;5051011;28;20224;-43
2021/03/05 03:57:49;;;;;;;3.80;2.30;;;23.40;28.30;;;;;;5049441;28;20299;-45
2021/03/05 04:00:15;;;;;;;2.90;1.92;;;23.40;28.30;;;;;;5051257;28;20205;-47
2021/03/05 04:02:41;;;;;;;2.58;1.70;;;23.40;28.30;;;;;;5049723;28;20205;-48
2021/03/05 04:05:07;;;;;;;2.97;1.90;;;23.40;28.30;;;;;;5049713;28;20230;-46
2021/03/05 04:07:33;;;;;;;3.53;1.97;;;23.40;28.30;;;;;;5050593;28;20712;-44
2021/03/05 04:09:59;;;;;;;1.80;1.70;;;23.40;28.30;;;;;;5049730;28;20194;-46
2021/03/05 04:12:25;;;;;;;2.10;1.83;;;23.40;28.30;;;;;;5050440;28;20217;-45
2021/03/05 04:14:51;;;;;;;4.15;2.00;;;23.40;28.30;;;;;;5049682;28;20197;-46
2021/03/05 04:17:17;;;;;;;3.30;2.00;;;23.40;29.60;;;;;;5050851;28;20244;-44
2021/03/05 04:19:42;;;;;;;1.80;1.70;;;23.40;29.30;;;;;;5049455;28;20658;-45
2021/03/05 04:22:08;;;;;;;3.33;2.67;;;23.40;28.80;;;;;;5050318;28;20204;-43
2021/03/05 04:24:34;;;;;;;2.70;1.75;;;23.40;28.30;;;;;;5050292;28;20225;-46
2021/03/05 04:27:00;;;;;;;2.60;1.87;;;23.40;28.30;;;;;;5050534;28;20225;-43
2021/03/05 04:29:26;;;;;;;2.28;1.88;;;23.40;28.30;;;;;;5049365;28;20209;-44
2021/03/05 04:31:52;;;;;;;2.05;1.85;;;23.40;28.30;;;;;;5049871;28;21117;-43
2021/03/05 04:34:18;;;;;;;3.23;2.10;;;23.40;28.30;;;;;;5049446;28;20209;-43
2021/03/05 04:36:44;;;;;;;2.63;1.67;;;23.40;28.30;;;;;;5050227;28;20229;-44
2021/03/05 04:39:11;;;;;;;2.55;1.85;;;23.40;28.30;;;;;;5050053;28;20209;-43
2021/03/05 04:41:37;;;;;;;3.10;1.97;;;23.40;28.30;;;;;;5050314;28;20286;-42
2021/03/05 04:44:03;;;;;;;2.27;2.07;;;23.40;28.30;;;;;;5049388;28;20229;-45
2021/03/05 04:46:29;;;;;;;3.30;1.85;;;23.40;28.30;;;;;;5053513;28;20707;-43
2021/03/05 04:48:55;;;;;;;1.80;1.70;;;23.40;28.30;;;;;;5052662;28;20213;-42
2021/03/05 04:51:21;;;;;;;3.77;2.20;;;23.40;28.30;;;;;;5048454;28;20206;-42
2021/03/05 04:53:47;;;;;;;2.47;1.75;;;23.40;28.30;;;;;;5039568;28;20250;-44
2021/03/05 04:56:13;;;;;;;3.77;2.17;;;23.40;28.30;;;;;;5053012;28;20580;-43
2021/03/05 04:58:38;;;;;;;2.30;1.50;;;23.40;28.30;;;;;;5053719;28;20677;-42
2021/03/05 05:01:04;;;;;;;3.00;1.90;;;23.40;28.30;;;;;;5052497;28;20251;-47
2021/03/05 05:03:30;;;;;;;1.73;1.60;;;23.40;28.30;;;;;;5052208;28;20206;-47
2021/03/05 05:05:56;;;;;;;1.85;1.60;;;23.40;28.30;;;;;;5053863;28;20315;-44
2021/03/05 05:08:22;;;;;;;2.95;1.60;;;23.40;28.30;;;;;;5053593;28;20224;-43
2021/03/05 05:10:48;;;;;;;2.47;1.83;;;23.40;28.30;;;;;;5053259;28;20324;-43
2021/03/05 05:13:14;;;;;;;1.90;1.63;;;23.40;28.30;;;;;;5051666;28;20256;-46
2021/03/05 05:15:40;;;;;;;1.60;1.50;;;23.40;28.30;;;;;;5052308;28;20213;-45
2021/03/05 05:18:06;;;;;;;1.70;1.60;;;23.40;28.30;;;;;;5052476;28;20221;-48
2021/03/05 05:20:32;;;;;;;1.90;1.60;;;23.40;28.30;;;;;;5052987;28;20194;-46
2021/03/05 05:22:58;;;;;;;1.70;1.60;;;23.40;28.30;;;;;;5051427;28;20247;-45
2021/03/05 05:25:24;;;;;;;1.57;1.47;;;23.40;28.30;;;;;;5057065;28;20229;-42
2021/03/05 05:27:49;;;;;;;1.63;1.50;;;23.40;28.30;;;;;;5053449;28;20585;-44
2021/03/05 05:30:15;;;;;;;1.93;1.73;;;23.40;28.90;;;;;;5052731;28;20713;-45
2021/03/05 05:32:41;;;;;;;2.20;1.80;;;23.40;28.30;;;;;;5052675;28;20217;-44
2021/03/05 05:35:07;;;;;;;1.73;1.60;;;23.40;28.30;;;;;;5051890;28;20208;-43
2021/03/05 05:37:33;;;;;;;1.93;1.70;;;23.40;28.30;;;;;;5053461;28;20232;-44
2021/03/05 05:39:59;;;;;;;1.75;1.50;;;23.40;28.80;;;;;;5051476;28;20198;-44
2021/03/05 05:42:25;;;;;;;2.17;1.60;;;23.40;28.30;;;;;;5052562;28;20206;-43
2021/03/05 05:44:51;;;;;;;3.27;1.90;;;23.40;28.70;;;;;;5051727;28;20287;-43
2021/03/05 05:47:17;;;;;;;2.87;1.83;;;23.40;28.90;;;;;;5051862;28;20279;-42
2021/03/05 05:49:43;;;;;;;4.33;2.07;;;23.40;28.80;;;;;;5051141;28;20202;-44
2021/03/05 05:52:09;;;;;;;2.60;1.53;;;23.40;29.10;;;;;;5052154;28;20232;-42
2021/03/05 05:54:35;;;;;;;3.77;1.80;;;23.40;29.00;;;;;;5051803;28;20213;-43
2021/03/05 05:57:01;;;;;;;2.30;1.67;;;23.40;29.10;;;;;;5051996;28;20580;-43
2021/03/05 05:59:27;;;;;;;3.83;2.00;;;23.40;29.10;;;;;;5052024;28;20212;-43
2021/03/05 06:01:52;;;;;;;2.85;1.98;;;23.40;29.10;;;;;;5052199;28;20202;-44
2021/03/05 06:04:18;;;;;;;2.93;1.90;;;23.40;29.00;;;;;;5044663;28;20293;-44
2021/03/05 06:06:44;;;;;;;2.30;1.77;;;23.40;29.00;;;;;;5050858;28;20217;-43
2021/03/05 06:09:10;;;;;;;4.63;1.90;;;23.40;29.10;;;;;;5051914;28;20209;-43
2021/03/05 06:11:36;;;;;;;2.30;1.73;;;23.40;29.10;;;;;;5052204;28;20197;-45
2021/03/05 06:14:02;;;;;;;3.42;1.60;;;23.40;29.00;;;;;;5051067;28;20202;-43
2021/03/05 06:16:28;;;;;;;3.53;1.90;;;23.40;29.10;;;;;;5052376;28;20624;-43
2021/03/05 06:18:54;;;;;;;2.80;1.83;;;23.30;29.10;;;;;;5050279;28;20647;-44
2021/03/05 06:21:20;;;;;;;2.73;1.67;;;23.40;29.20;;;;;;5051789;28;20201;-45
2021/03/05 06:23:46;;;;;;;2.73;1.90;;;23.30;29.10;;;;;;5054320;28;20205;-44
2021/03/05 06:26:12;;;;;;;3.57;1.90;;;23.40;29.20;;;;;;5052495;28;20241;-45
2021/03/05 06:28:38;;;;;;;2.20;1.67;;;23.40;29.30;;;;;;5051546;28;20677;-44
2021/03/05 06:31:03;;;;;;;2.40;1.80;;;23.30;29.10;;;;;;5052178;28;20217;-45
2021/03/05 06:33:29;;;;;;;4.70;2.10;;;23.30;29.20;;;;;;5050605;28;20201;-44
2021/03/05 06:35:55;;;;;;;2.10;1.57;;;23.30;29.20;;;;;;5052432;28;20233;-44
2021/03/05 06:38:21;;;;;;;2.43;1.50;;;23.30;29.20;;;;;;5051438;28;20205;-47
2021/03/05 06:40:47;;;;;;;2.70;1.70;;;23.30;29.20;;;;;;5051022;28;20591;-45
2021/03/05 06:43:13;;;;;;;1.98;1.60;;;23.30;29.30;;;;;;5050699;28;20584;-44
2021/03/05 06:45:39;;;;;;;2.40;1.50;;;23.30;29.20;;;;;;5050772;28;20244;-43
2021/03/05 06:48:05;;;;;;;2.93;1.50;;;23.30;29.20;;;;;;5050553;28;20214;-45
2021/03/05 06:50:31;;;;;;;3.55;1.63;;;23.30;29.20;;;;;;5050199;28;20212;-45
2021/03/05 06:52:57;;;;;;;2.47;1.73;;;23.40;29.30;;;;;;5043986;28;20213;-43
2021/03/05 06:55:23;;;;;;;3.77;1.80;;;23.30;29.20;;;;;;5047710;28;20201;-43
2021/03/05 06:57:48;;;;;;;3.77;1.73;;;23.40;29.20;;;;;;5050748;28;20220;-44
2021/03/05 07:00:14;;;;;;;1.60;1.50;;;23.40;29.30;;;;;;5052008;28;20560;-45
2021/03/05 07:02:40;;;;;;;3.83;1.93;;;23.40;29.20;;;;;;5050364;28;20666;-44
2021/03/05 07:05:06;;;;;;;2.10;1.90;;;23.40;29.20;;;;;;5051831;28;20229;-44
2021/03/05 07:07:32;;;;;;;2.33;1.67;;;23.40;29.20;;;;;;5049817;28;20214;-44
2021/03/05 07:09:59;;;;;;;2.50;1.70;;;23.30;29.20;;;;;;5051864;28;20201;-45
2021/03/05 07:12:25;;;;;;;2.67;1.50;;;23.40;29.30;;;;;;5051060;28;20670;-46
2021/03/05 07:14:51;;;;;;;2.47;1.53;;;23.30;29.20;;;;;;5050386;28;20213;-44
2021/03/05 07:17:17;;;;;;;4.20;1.70;;;23.30;29.30;;;;;;5051454;28;20303;-43
2021/03/05 07:19:43;;;;;;;2.83;1.60;;;23.40;29.30;;;;;;5049752;28;20529;-43
2021/03/05 07:22:09;;;;;;;3.53;1.70;;;23.30;29.20;;;;;;5050832;28;20205;-44
2021/03/05 07:24:37;;;;;;;2.00;1.73;;;23.30;29.30;;;;;;5049036;28;20237;-43
2021/03/05 07:27:03;;;;;;;1.80;1.70;;;23.30;29.20;;;;;;5051446;28;20295;-46
2021/03/05 07:29:29;;;;;;;5.53;2.27;;;23.30;29.30;;;;;;5050599;28;20680;-43
2021/03/05 07:31:55;;;;;;;2.90;1.60;;;23.30;29.30;;;;;;5047452;28;20206;-46
2021/03/05 07:34:21;;;;;;;3.17;1.40;;;23.30;29.30;;;;;;5043303;28;20205;-43
2021/03/05 07:36:47;;;;;;;2.07;1.60;;;23.40;29.40;;;;;;5050191;28;20233;-43
2021/03/05 07:39:13;;;;;;;2.13;1.63;;;23.30;29.40;;;;;;5051570;28;20212;-43
2021/03/05 07:41:39;;;;;;;1.63;1.50;;;23.30;29.50;;;;;;5050040;28;20240;-44
2021/03/05 07:44:05;;;;;;;1.90;1.53;;;23.30;29.40;;;;;;5049851;28;20213;-45
2021/03/05 07:46:31;;;;;;;1.70;1.50;;;23.30;29.50;;;;;;5050423;28;20640;-45
2021/03/05 07:48:57;;;;;;;2.73;1.47;;;23.30;29.40;;;;;;5048219;28;20711;-47
2021/03/05 07:51:22;;;;;;;2.00;1.57;;;23.30;29.50;;;;;;5051152;28;20205;-43
2021/03/05 07:53:48;;;;;;;3.00;1.70;;;23.30;29.50;;;;;;5049621;28;20213;-43
2021/03/05 07:56:14;;;;;;;2.00;1.57;;;23.30;29.30;;;;;;5050422;28;20233;-43
2021/03/05 07:58:40;;;;;;;2.17;1.87;;;23.30;29.50;;;;;;5048840;28;20201;-45
2021/03/05 08:01:06;;;;;;;3.15;1.50;;;23.30;29.40;;;;;;5050625;28;20206;-44
2021/03/05 08:03:32;;;;;;;3.57;1.67;;;23.30;29.20;;;;;;5049498;28;20211;-46
2021/03/05 08:05:59;;;;;;;3.77;1.37;;;23.30;29.30;;;;;;5050994;28;20241;-42
2021/03/05 08:08:25;;;;;;;1.77;1.40;;;23.30;29.30;;;;;;5048961;28;20205;-44
2021/03/05 08:10:51;;;;;;;2.13;1.30;;;23.30;29.40;;;;;;5051225;28;20240;-49
2021/03/05 08:13:17;;;;;;;2.33;1.40;;;23.30;29.30;;;;;;5050447;28;20216;-43
2021/03/05 08:15:43;;;;;;;1.90;1.70;;;23.30;29.30;;;;;;5048144;28;20239;-42
2021/03/05 08:18:09;;;;;;;4.60;1.80;;;23.30;29.30;;;;;;5052759;28;20197;-42
2021/03/05 08:20:35;;;;;;;3.57;1.60;;;23.30;30.00;;;;;;5047372;28;20213;-45
2021/03/05 08:23:01;;;;;;;5.37;1.60;;;23.40;29.80;;;;;;5053568;28;20201;-44
2021/03/05 08:25:27;;;;;;;5.40;1.53;;;23.40;29.40;;;;;;5052086;28;20328;-43
2021/03/05 08:27:53;;;;;;;2.47;1.20;;;23.50;29.70;;;;;;5049860;28;20198;-45
2021/03/05 08:30:20;;;;;;;8.05;1.80;;;23.60;29.30;;;;;;5053013;28;20206;-41
2021/03/05 08:32:46;;;;;;;2.30;1.35;;;23.60;29.50;;;;;;5053986;28;20205;-45
2021/03/05 08:35:12;;;;;;;1.83;1.30;;;23.60;28.90;;;;;;5050831;28;20206;-45
2021/03/05 08:37:38;;;;;;;2.47;1.83;;;23.50;28.80;;;;;;5054540;28;20574;-43
2021/03/05 08:40:04;;;;;;;2.67;1.67;;;23.50;28.40;;;;;;5045877;28;20198;-44
2021/03/05 08:42:32;;;;;;;2.83;1.70;;;23.50;29.30;;;;;;5053627;28;20201;-44
2021/03/05 08:44:58;;;;;;;1.88;1.50;;;23.50;28.90;;;;;;5053250;28;20240;-43
2021/03/05 08:47:24;;;;;;;1.77;1.42;;;23.50;28.90;;;;;;5052870;28;20229;-45
2021/03/05 08:49:50;;;;;;;3.93;1.63;;;23.50;29.00;;;;;;5045365;28;20209;-49
2021/03/05 08:52:16;;;;;;;7.40;2.13;;;23.50;28.90;;;;;;5047577;28;20202;-48
2021/03/05 08:54:42;;;;;;;4.53;1.88;;;23.60;30.90;;;;;;5049493;28;20210;-46
2021/03/05 08:57:08;;;;;;;5.82;1.98;;;23.60;30.50;;;;;;5052246;28;20296;-48
2021/03/05 08:59:34;;;;;;;6.28;3.05;;;23.50;32.50;;;;;;5053778;28;20271;-42
2021/03/05 09:02:00;;;;;;;4.32;1.80;;;23.50;33.20;;;;;;5053342;28;20193;-44
2021/03/05 09:04:26;;;;;;;4.90;2.03;;;23.40;33.70;;;;;;5050279;28;20267;-45
2021/03/05 09:06:52;;;;;;;8.80;2.50;;;23.40;33.40;;;;;;5039562;28;20222;-50
2021/03/05 09:09:19;;;;;;;10.67;2.23;;;23.40;33.00;;;;;;5052915;28;20567;-46
2021/03/05 09:11:45;;;;;;;14.30;3.93;;;23.40;32.70;;;;;;5049832;28;20205;-46
2021/03/05 09:14:11;;;;;;;7.33;4.00;;;23.50;34.10;;;;;;5051934;28;20770;-47
2021/03/05 09:16:37;;;;;;;7.47;4.07;;;19.60;29.50;;;;;;5050979;28;20222;-46
2021/03/05 09:19:03;;;;;;;6.03;2.83;;;20.00;34.10;;;;;;5053456;28;20234;-46
2021/03/05 09:21:29;;;;;;;5.83;3.00;;;21.20;35.60;;;;;;5053151;28;20204;-49
2021/03/05 09:23:54;;;;;;;4.43;2.53;;;21.90;36.30;;;;;;5052172;28;20214;-50
2021/03/05 09:26:20;;;;;;;6.20;2.90;;;22.30;34.80;;;;;;5051474;28;20259;-45
2021/03/05 09:28:46;;;;;;;4.27;2.80;;;22.50;35.00;;;;;;5050843;28;20601;-47
2021/03/05 09:31:13;;;;;;;4.13;2.63;;;22.60;34.70;;;;;;5058197;28;20222;-46
2021/03/05 09:33:39;;;;;;;5.23;2.70;;;22.60;34.30;;;;;;5051316;28;20207;-47
2021/03/05 09:36:05;;;;;;;5.20;2.80;;;22.70;34.20;;;;;;5051844;28;20274;-49
2021/03/05 09:38:31;;;;;;;5.07;2.50;;;22.70;33.70;;;;;;5051968;28;20227;-45
2021/03/05 09:40:57;;;;;;;7.33;3.20;;;22.70;33.40;;;;;;5047109;28;20228;-47
2021/03/05 09:43:23;;;;;;;3.83;2.70;;;22.70;33.60;;;;;;5051710;28;20620;-51
2021/03/05 09:45:50;;;;;;;4.63;2.80;;;22.70;32.50;;;;;;5046265;28;20244;-52
2021/03/05 09:48:16;;;;;;;4.37;2.90;;;22.80;33.90;;;;;;5041488;28;20700;-51
2021/03/05 09:50:41;;;;;;;5.10;2.70;;;22.80;32.10;;;;;;5044953;28;20205;-51
2021/03/05 09:53:07;;;;;;;6.10;2.90;;;22.70;32.80;;;;;;5052255;28;20682;-48
2021/03/05 09:55:33;;;;;;;3.47;2.40;;;22.70;33.20;;;;;;5051031;28;20734;-48
2021/03/05 09:57:59;;;;;;;3.40;2.90;;;22.70;32.60;;;;;;5051671;28;20212;-50
2021/03/05 10:00:25;;;;;;;3.87;2.77;;;22.80;32.20;;;;;;5051785;28;20209;-49
2021/03/05 10:02:51;;;;;;;3.30;2.50;;;22.80;32.90;;;;;;5051903;28;20204;-50
2021/03/05 10:05:17;;;;;;;5.07;2.33;;;22.70;32.00;;;;;;5048092;28;20244;-47
2021/03/05 10:07:43;;;;;;;2.90;2.53;;;22.80;32.10;;;;;;5051725;28;20216;-56
2021/03/05 10:10:09;;;;;;;3.10;2.67;;;22.70;32.10;;;;;;5052352;28;20528;-47
2021/03/05 10:12:35;;;;;;;3.97;2.50;;;22.70;32.00;;;;;;5051317;28;20217;-46
2021/03/05 10:15:01;;;;;;;3.20;2.60;;;22.70;32.00;;;;;;5051334;28;20716;-46
2021/03/05 10:17:26;;;;;;;4.60;2.60;;;22.70;32.30;;;;;;5049577;28;20201;-53
2021/03/05 10:19:52;;;;;;;3.10;2.73;;;22.80;32.90;;;;;;5052533;28;20212;-52
2021/03/05 10:22:18;;;;;;;3.37;2.77;;;22.80;32.10;;;;;;5044435;28;20252;-50
2021/03/05 10:24:45;;;;;;;4.07;2.73;;;22.80;31.00;;;;;;5050004;28;20224;-53
2021/03/05 10:27:11;;;;;;;5.27;3.43;;;22.80;31.00;;;;;;5049682;28;20296;-46
2021/03/05 10:29:37;;;;;;;4.27;3.13;;;22.80;29.00;;;;;;5049410;28;20204;-48
2021/03/05 10:32:03;;;;;;;3.57;3.10;;;22.70;29.90;;;;;;5037657;28;20212;-48
2021/03/05 10:34:29;;;;;;;3.30;3.00;;;22.70;30.70;;;;;;5050489;28;20207;-47
2021/03/05 10:36:55;;;;;;;3.47;3.13;;;22.70;30.70;;;;;;5050233;28;20221;-50
2021/03/05 10:39:21;;;;;;;4.13;3.63;;;22.70;30.70;;;;;;5050796;28;20211;-47
2021/03/05 10:41:47;;;;;;;3.27;2.87;;;22.70;30.40;;;;;;5050022;28;20695;-48
2021/03/05 10:44:13;;;;;;;4.17;3.10;;;22.80;30.30;;;;;;5050620;28;20215;-46
2021/03/05 10:46:39;;;;;;;4.13;3.73;;;22.80;30.00;;;;;;5046002;28;20279;-48
2021/03/05 10:49:05;;;;;;;4.63;3.53;;;22.80;29.70;;;;;;5051377;28;20212;-48
2021/03/05 10:51:30;;;;;;;4.17;3.57;;;22.70;29.40;;;;;;5050863;28;20209;-44
2021/03/05 10:53:56;;;;;;;4.10;3.70;;;22.70;28.50;;;;;;5051924;28;20254;-47
2021/03/05 10:56:22;;;;;;;4.73;3.30;;;22.70;28.70;;;;;;5046997;28;20240;-45
2021/03/05 10:58:48;;;;;;;4.80;3.50;;;22.70;28.60;;;;;;5048591;28;20209;-45
2021/03/05 11:01:14;;;;;;;4.00;3.60;;;22.70;28.30;;;;;;5050644;28;20651;-46
2021/03/05 11:03:40;;;;;;;4.00;3.60;;;22.70;28.10;;;;;;5050130;28;20206;-45
2021/03/05 11:06:06;;;;;;;6.03;4.00;;;22.60;27.90;;;;;;5049087;28;20241;-46
2021/03/05 11:08:33;;;;;;;5.50;3.57;;;22.70;27.80;;;;;;5048889;28;20205;-45
2021/03/05 11:10:58;;;;;;;4.23;3.60;;;22.70;28.40;;;;;;5047245;28;20208;-45
2021/03/05 11:13:24;;;;;;;4.07;3.70;;;22.90;28.80;;;;;;5049809;28;20228;-50
2021/03/05 11:15:50;;;;;;;4.50;3.20;;;22.90;28.70;;;;;;5050709;28;20221;-49
2021/03/05 11:18:16;;;;;;;3.47;3.17;;;23.00;28.70;;;;;;5048786;28;20240;-47
2021/03/05 11:20:42;;;;;;;4.20;3.40;;;23.00;28.60;;;;;;5048733;28;20571;-46
2021/03/05 11:23:08;;;;;;;3.90;3.40;;;23.10;28.40;;;;;;5049838;28;20216;-52
2021/03/05 11:25:34;;;;;;;6.60;3.40;;;23.10;28.10;;;;;;5048809;28;20232;-45
2021/03/05 11:28:00;;;;;;;4.17;3.20;;;23.10;28.30;;;;;;5051560;28;20216;-46
2021/03/05 11:30:26;;;;;;;3.70;3.20;;;23.10;28.10;;;;;;5048572;28;20611;-49
2021/03/05 11:32:52;;;;;;;3.40;3.10;;;23.10;28.70;;;;;;5049769;28;20213;-49
2021/03/05 11:35:18;;;;;;;4.03;3.57;;;23.10;28.10;;;;;;5049371;28;20234;-55
2021/03/05 11:37:44;;;;;;;3.43;3.13;;;23.10;27.60;;;;;;5050753;28;20219;-46
2021/03/05 11:40:10;;;;;;;4.03;3.47;;;23.10;27.70;;;;;;5050873;28;20212;-45
2021/03/05 11:42:36;;;;;;;4.13;3.60;;;23.10;27.20;;;;;;5047116;28;20206;-51
2021/03/05 11:45:05;;;;;;;4.38;3.72;;;23.10;27.40;;;;;;5050119;28;20243;-46
2021/03/05 11:47:30;;;;;;;3.85;3.50;;;23.00;27.00;;;;;;5044090;28;20208;-51
2021/03/05 11:49:56;;;;;;;4.93;3.70;;;23.00;27.00;;;;;;5050213;28;20201;-45
2021/03/05 11:52:22;;;;;;;3.77;3.37;;;23.10;27.10;;;;;;5049791;28;20205;-44
2021/03/05 11:54:48;;;;;;;4.13;3.60;;;23.00;26.90;;;;;;5053850;28;20278;-48
2021/03/05 11:57:14;;;;;;;3.73;3.43;;;23.00;26.80;;;;;;5053820;28;20220;-44
2021/03/05 11:59:40;;;;;;;4.53;3.73;;;23.00;26.80;;;;;;5052333;28;20216;-48
2021/03/05 12:02:06;;;;;;;4.47;3.47;;;23.00;26.70;;;;;;5053853;28;20204;-48
2021/03/05 12:04:32;;;;;;;4.37;3.63;;;23.00;26.70;;;;;;5050133;28;20230;-48
2021/03/05 12:06:58;;;;;;;4.10;3.20;;;23.10;26.70;;;;;;5052709;28;20236;-47
2021/03/05 12:09:24;;;;;;;5.83;3.10;;;23.10;26.60;;;;;;5046870;28;20207;-45
2021/03/05 12:11:50;;;;;;;5.00;3.70;;;23.00;26.00;;;;;;5050353;28;20213;-46
2021/03/05 12:14:16;;;;;;;3.20;2.90;;;22.90;25.50;;;;;;5042170;28;20577;-49
2021/03/05 12:16:41;;;;;;;12.37;4.70;;;23.00;26.00;;;;;;5039408;28;20674;-47
2021/03/05 12:19:07;;;;;;;5.10;3.60;;;22.90;25.40;;;;;;5054572;28;20290;-51
2021/03/05 12:21:33;;;;;;;4.43;3.03;;;22.90;25.40;;;;;;5054706;28;20217;-48
2021/03/05 12:23:59;;;;;;;5.17;3.23;;;22.80;25.40;;;;;;5053289;28;20211;-48
2021/03/05 12:26:25;;;;;;;3.90;3.00;;;22.80;25.40;;;;;;5055056;28;20237;-47
2021/03/05 12:28:51;;;;;;;4.10;3.13;;;22.80;25.40;;;;;;5054799;28;20665;-48
2021/03/05 12:31:17;;;;;;;3.53;3.07;;;22.80;25.30;;;;;;5054696;28;20224;-47
2021/03/05 12:33:43;;;;;;;2.97;2.77;;;22.80;25.30;;;;;;5054162;28;20220;-49
2021/03/05 12:36:09;;;;;;;4.20;3.13;;;22.80;25.30;;;;;;5054696;28;20220;-45
2021/03/05 12:38:35;;;;;;;3.83;3.10;;;22.70;25.10;;;;;;5054362;28;20219;-47